Terminal Aerodrome Forecast
Issued by NWS

Home | Current Version | Previous Version | Text Only | Print | Product List | Glossary On
Versions: 1 2 3 4 5 6 7 8 9 10 11 12 13 14 15 16 17 18 19 20 21 22 23
000
FTAK31 PAFA 242340
TAFASC
TAF
PASC 242340Z 2500/2524 VRB03KT 2SM BR BKN003
      TEMPO 2501/2505 1/2SM FZFG VV002
     FM250500 08006KT 1/2SM FZFG VV002
     FM251900 11005KT 3SM BR BKN004=

USA.gov is the U.S. government's official web portal to all federal, state and local government web resources and services.